createdAt,value
2017-09-09T00:00:11.179Z,984.04
2017-09-09T00:01:11.189Z,984.04
2017-09-09T00:02:11.186Z,983.98
2017-09-09T00:03:11.162Z,983.96
2017-09-09T00:04:11.189Z,983.92
2017-09-09T00:05:11.137Z,983.95
2017-09-09T00:06:11.132Z,983.93
2017-09-09T00:07:11.109Z,983.92
2017-09-09T00:08:11.110Z,983.97
2017-09-09T00:09:11.133Z,983.94
2017-09-09T00:10:11.093Z,983.91
2017-09-09T00:11:11.078Z,983.97
2017-09-09T00:12:11.071Z,983.90
2017-09-09T00:13:11.058Z,983.92
2017-09-09T00:14:11.352Z,983.91
2017-09-09T00:15:11.040Z,983.88
2017-09-09T00:16:11.037Z,983.89
2017-09-09T00:17:11.020Z,983.87
2017-09-09T00:18:11.010Z,983.84
2017-09-09T00:19:11.005Z,983.85
2017-09-09T00:20:11.281Z,983.83
2017-09-09T00:21:10.973Z,983.87
2017-09-09T00:22:10.960Z,983.87
2017-09-09T00:23:10.947Z,983.85
2017-09-09T00:24:10.961Z,983.83
2017-09-09T00:25:10.961Z,983.83
2017-09-09T00:26:11.273Z,983.84
2017-09-09T00:27:10.909Z,983.82
2017-09-09T00:28:10.928Z,983.83
2017-09-09T00:29:10.905Z,983.81
2017-09-09T00:30:10.889Z,983.83
2017-09-09T00:31:10.871Z,983.83
2017-09-09T00:32:11.221Z,983.78
2017-09-09T00:33:10.848Z,983.74
2017-09-09T00:34:10.849Z,983.74
2017-09-09T00:35:10.833Z,983.70
2017-09-09T00:36:10.839Z,983.69
2017-09-09T00:37:10.820Z,983.69
2017-09-09T00:38:11.088Z,983.72
2017-09-09T00:39:10.801Z,983.78
2017-09-09T00:40:10.780Z,983.67
2017-09-09T00:41:10.769Z,983.68
2017-09-09T00:42:10.779Z,983.72
2017-09-09T00:43:10.774Z,983.67
2017-09-09T00:44:11.045Z,983.66
2017-09-09T00:45:10.734Z,983.63
2017-09-09T00:46:10.731Z,983.64
2017-09-09T00:47:10.739Z,983.61
2017-09-09T00:48:10.713Z,983.64
2017-09-09T00:49:10.695Z,983.63
2017-09-09T00:50:11.142Z,983.62
2017-09-09T00:51:10.678Z,983.60
2017-09-09T00:52:10.672Z,983.63
2017-09-09T00:53:10.661Z,983.61
2017-09-09T00:54:10.644Z,983.56
2017-09-09T00:55:10.646Z,983.56
2017-09-09T00:56:11.013Z,983.55
2017-09-09T00:57:10.618Z,983.56
2017-09-09T00:58:10.611Z,983.54
2017-09-09T00:59:10.588Z,983.55
2017-09-09T01:00:10.603Z,983.51
2017-09-09T01:01:10.580Z,983.56
2017-09-09T01:02:10.927Z,983.55
2017-09-09T01:03:10.551Z,983.55
2017-09-09T01:04:10.554Z,983.54
2017-09-09T01:05:10.533Z,983.54
2017-09-09T01:06:10.528Z,983.58
2017-09-09T01:07:10.531Z,983.62
2017-09-09T01:08:10.563Z,983.57
2017-09-09T01:09:10.495Z,983.56
2017-09-09T01:10:10.484Z,983.54
2017-09-09T01:11:10.492Z,983.56
2017-09-09T01:12:10.462Z,983.56
2017-09-09T01:13:10.873Z,983.51
2017-09-09T01:14:10.465Z,983.53
2017-09-09T01:15:10.448Z,983.50
2017-09-09T01:16:10.436Z,983.49
2017-09-09T01:17:10.429Z,983.51
2017-09-09T01:18:10.406Z,983.47
2017-09-09T01:19:10.700Z,983.44
2017-09-09T01:20:10.394Z,983.45
2017-09-09T01:21:10.372Z,983.38
2017-09-09T01:22:10.381Z,983.37
2017-09-09T01:23:10.372Z,983.37
2017-09-09T01:24:10.343Z,983.35
2017-09-09T01:25:10.792Z,983.32
2017-09-09T01:26:10.333Z,983.33
2017-09-09T01:27:10.328Z,983.32
2017-09-09T01:28:10.317Z,983.32
2017-09-09T01:29:10.309Z,983.28
2017-09-09T01:30:10.293Z,983.27
2017-09-09T01:31:10.306Z,983.29
2017-09-09T01:32:10.267Z,983.34
2017-09-09T01:33:10.265Z,983.30
2017-09-09T01:34:10.270Z,983.29
2017-09-09T01:35:10.252Z,983.27
2017-09-09T01:36:10.259Z,983.30
2017-09-09T01:37:10.235Z,983.30
2017-09-09T01:38:10.201Z,983.30
2017-09-09T01:39:10.195Z,983.34
2017-09-09T01:40:10.181Z,983.38
2017-09-09T01:41:10.207Z,983.41
2017-09-09T01:42:10.176Z,983.50
2017-09-09T01:43:10.160Z,983.55
2017-09-09T01:44:10.150Z,983.64
2017-09-09T01:45:10.146Z,983.57
2017-09-09T01:46:10.166Z,983.65
2017-09-09T01:47:10.128Z,983.59
2017-09-09T01:48:10.131Z,983.55
2017-09-09T01:49:10.097Z,983.58
2017-09-09T01:50:10.107Z,983.49
2017-09-09T01:51:10.496Z,983.51
2017-09-09T01:52:10.080Z,983.46
2017-09-09T01:53:10.055Z,983.42
2017-09-09T01:54:10.081Z,983.43
2017-09-09T01:55:10.051Z,983.38
2017-09-09T01:56:10.022Z,983.42
2017-09-09T01:57:10.358Z,983.39
2017-09-09T01:58:10.015Z,983.35
2017-09-09T01:59:09.991Z,983.31
2017-09-09T02:00:09.980Z,983.26
2017-09-09T02:01:09.981Z,983.27
2017-09-09T02:02:09.961Z,983.25
2017-09-09T02:03:10.291Z,983.24
2017-09-09T02:04:09.939Z,983.21
2017-09-09T02:05:09.930Z,983.21
2017-09-09T02:06:09.934Z,983.15
2017-09-09T02:07:09.918Z,983.14
2017-09-09T02:08:09.910Z,983.11
2017-09-09T02:09:10.242Z,983.12
2017-09-09T02:10:09.891Z,983.12
2017-09-09T02:11:09.876Z,983.12
2017-09-09T02:12:09.855Z,983.15
2017-09-09T02:13:09.855Z,983.13
2017-09-09T02:14:09.834Z,983.14
2017-09-09T02:15:10.116Z,983.13
2017-09-09T02:16:09.820Z,983.11
2017-09-09T02:17:09.825Z,983.08
2017-09-09T02:18:09.790Z,983.08
2017-09-09T02:19:09.791Z,983.08
2017-09-09T02:20:09.790Z,983.04
2017-09-09T02:21:10.074Z,983.04
2017-09-09T02:22:09.756Z,983.01
2017-09-09T02:23:09.751Z,983.01
2017-09-09T02:24:09.729Z,982.98
2017-09-09T02:25:09.731Z,982.99
2017-09-09T02:26:09.726Z,983.00
2017-09-09T02:27:09.744Z,982.99
2017-09-09T02:28:09.697Z,982.95
2017-09-09T02:29:09.683Z,982.96
2017-09-09T02:30:09.712Z,982.94
2017-09-09T02:31:09.668Z,982.98
2017-09-09T02:32:09.644Z,982.98
2017-09-09T02:33:09.637Z,982.93
2017-09-09T02:34:09.625Z,982.94
2017-09-09T02:35:09.839Z,982.90
2017-09-09T02:36:09.614Z,982.89
2017-09-09T02:37:09.617Z,982.85
2017-09-09T02:38:09.581Z,982.85
2017-09-09T02:39:09.590Z,982.87
2017-09-09T02:40:09.573Z,982.92
2017-09-09T02:41:10.005Z,982.91
2017-09-09T02:42:09.551Z,982.97
2017-09-09T02:43:09.530Z,982.97
2017-09-09T02:44:09.538Z,982.97
2017-09-09T02:45:09.523Z,982.94
2017-09-09T02:46:09.510Z,982.88
2017-09-09T02:47:09.799Z,982.88
2017-09-09T02:48:09.496Z,982.89
2017-09-09T02:49:09.477Z,982.93
2017-09-09T02:50:09.462Z,982.93
2017-09-09T02:51:09.453Z,982.90
2017-09-09T02:52:09.442Z,982.87
2017-09-09T02:53:09.801Z,982.85
2017-09-09T02:54:09.422Z,982.86
2017-09-09T02:55:09.416Z,982.77
2017-09-09T02:56:09.413Z,982.77
2017-09-09T02:57:09.399Z,982.74
2017-09-09T02:58:09.394Z,982.72
2017-09-09T02:59:09.724Z,982.71
2017-09-09T03:00:09.371Z,982.73
2017-09-09T03:01:09.348Z,982.70
2017-09-09T03:02:09.340Z,982.73
2017-09-09T03:03:09.326Z,982.67
2017-09-09T03:04:09.329Z,982.67
2017-09-09T03:05:09.661Z,982.68
2017-09-09T03:06:09.299Z,982.65
2017-09-09T03:07:09.306Z,982.68
2017-09-09T03:08:09.293Z,982.66
2017-09-09T03:09:09.266Z,982.67
2017-09-09T03:10:09.265Z,982.66
2017-09-09T03:11:09.295Z,982.65
2017-09-09T03:12:09.234Z,982.62
2017-09-09T03:13:09.238Z,982.60
2017-09-09T03:14:09.230Z,982.58
2017-09-09T03:15:09.237Z,982.55
2017-09-09T03:16:09.198Z,982.52
2017-09-09T03:17:09.189Z,982.51
2017-09-09T03:18:09.178Z,982.49
2017-09-09T03:19:09.166Z,982.54
2017-09-09T03:20:09.602Z,982.51
2017-09-09T03:21:09.148Z,982.50
2017-09-09T03:22:09.132Z,982.49
2017-09-09T03:23:09.135Z,982.47
2017-09-09T03:24:09.122Z,982.50
2017-09-09T03:25:09.115Z,982.50
2017-09-09T03:26:09.400Z,982.50
2017-09-09T03:27:09.098Z,982.53
2017-09-09T03:28:09.087Z,982.50
2017-09-09T03:29:09.078Z,982.50
2017-09-09T03:30:09.053Z,982.50
2017-09-09T03:31:09.057Z,982.49
2017-09-09T03:32:09.284Z,982.49
2017-09-09T03:33:09.032Z,982.45
2017-09-09T03:34:09.020Z,982.41
2017-09-09T03:35:09.014Z,982.45
2017-09-09T03:36:09.012Z,982.45
2017-09-09T03:37:09.003Z,982.46
2017-09-09T03:38:09.294Z,982.45
2017-09-09T03:39:08.966Z,982.48
2017-09-09T03:40:08.953Z,982.50
2017-09-09T03:41:08.943Z,982.46
2017-09-09T03:42:08.941Z,982.45
2017-09-09T03:43:08.920Z,982.44
2017-09-09T03:44:09.321Z,982.44
2017-09-09T03:45:08.902Z,982.42
2017-09-09T03:46:08.905Z,982.40
2017-09-09T03:47:08.892Z,982.40
2017-09-09T03:48:08.881Z,982.38
2017-09-09T03:49:08.864Z,982.34
2017-09-09T03:50:09.176Z,982.26
2017-09-09T03:51:08.847Z,982.25
2017-09-09T03:52:08.850Z,982.22
2017-09-09T03:53:08.835Z,982.25
2017-09-09T03:54:08.817Z,982.17
2017-09-09T03:55:08.821Z,982.15
2017-09-09T03:56:09.133Z,982.12
2017-09-09T03:57:08.810Z,982.11
2017-09-09T03:58:08.789Z,982.11
2017-09-09T03:59:08.782Z,982.09
2017-09-09T04:00:08.757Z,982.07
2017-09-09T04:01:08.766Z,982.07
2017-09-09T04:02:08.771Z,982.08
2017-09-09T04:03:08.744Z,982.12
2017-09-09T04:04:08.720Z,982.12
2017-09-09T04:05:08.708Z,982.10
2017-09-09T04:06:08.697Z,982.09
2017-09-09T04:07:08.728Z,982.14
2017-09-09T04:08:08.687Z,982.12
2017-09-09T04:09:08.686Z,982.05
2017-09-09T04:10:08.675Z,982.04
2017-09-09T04:11:08.664Z,982.04
2017-09-09T04:12:08.958Z,982.05
2017-09-09T04:13:08.632Z,982.05
2017-09-09T04:14:08.636Z,982.05
2017-09-09T04:15:08.625Z,982.05
2017-09-09T04:16:08.602Z,982.02
2017-09-09T04:17:08.607Z,982.00
2017-09-09T04:18:08.617Z,982.00
2017-09-09T04:19:08.582Z,982.02
2017-09-09T04:20:08.553Z,982.02
2017-09-09T04:21:08.541Z,982.00
2017-09-09T04:22:09.121Z,982.04
2017-09-09T04:23:08.537Z,981.99
2017-09-09T04:24:08.514Z,982.01
2017-09-09T04:25:08.512Z,982.00
2017-09-09T04:26:08.507Z,981.95
2017-09-09T04:27:08.505Z,981.94
2017-09-09T04:28:08.518Z,981.95
2017-09-09T04:29:08.462Z,981.91
2017-09-09T04:30:08.461Z,981.93
2017-09-09T04:31:08.436Z,981.90
2017-09-09T04:32:08.443Z,981.90
2017-09-09T04:33:08.749Z,981.88
2017-09-09T04:34:08.433Z,981.88
2017-09-09T04:35:08.414Z,981.87
2017-09-09T04:36:08.395Z,981.90
2017-09-09T04:37:08.388Z,981.93
2017-09-09T04:38:08.389Z,981.93
2017-09-09T04:39:08.751Z,981.89
2017-09-09T04:40:08.366Z,981.90
2017-09-09T04:41:08.344Z,981.87
2017-09-09T04:42:08.352Z,981.87
2017-09-09T04:43:08.339Z,981.82
2017-09-09T04:44:08.328Z,981.83
2017-09-09T04:45:08.645Z,981.85
2017-09-09T04:46:08.299Z,981.83
2017-09-09T04:47:08.312Z,981.84
2017-09-09T04:48:08.273Z,981.80
2017-09-09T04:49:08.272Z,981.81
2017-09-09T04:50:08.267Z,981.79
2017-09-09T04:51:08.572Z,981.82
2017-09-09T04:52:08.246Z,981.77
2017-09-09T04:53:08.240Z,981.75
2017-09-09T04:54:08.225Z,981.77
2017-09-09T04:55:08.217Z,981.75
2017-09-09T04:56:08.211Z,981.72
2017-09-09T04:57:08.521Z,981.79
2017-09-09T04:58:08.176Z,981.76
2017-09-09T04:59:08.183Z,981.76
2017-09-09T05:00:08.155Z,981.75
2017-09-09T05:01:08.135Z,981.80
2017-09-09T05:02:08.144Z,981.84
2017-09-09T05:03:08.488Z,981.80
2017-09-09T05:04:08.154Z,981.79
2017-09-09T05:05:08.101Z,981.78
2017-09-09T05:06:08.082Z,981.71
2017-09-09T05:07:08.081Z,981.70
2017-09-09T05:08:08.068Z,981.72
2017-09-09T05:09:08.092Z,981.76
2017-09-09T05:10:08.062Z,981.74
2017-09-09T05:11:08.040Z,981.73
2017-09-09T05:12:08.040Z,981.75
2017-09-09T05:13:08.026Z,981.73
2017-09-09T05:14:08.342Z,981.73
2017-09-09T05:15:08.013Z,981.66
2017-09-09T05:16:07.986Z,981.64
2017-09-09T05:17:07.971Z,981.64
2017-09-09T05:18:07.975Z,981.65
2017-09-09T05:19:07.972Z,981.63
2017-09-09T05:20:07.981Z,981.64
2017-09-09T05:21:07.936Z,981.59
2017-09-09T05:22:07.941Z,981.60
2017-09-09T05:23:07.922Z,981.55
2017-09-09T05:24:07.930Z,981.57
2017-09-09T05:25:07.896Z,981.58
2017-09-09T05:26:07.936Z,981.59
2017-09-09T05:27:07.885Z,981.60
2017-09-09T05:28:07.879Z,981.60
2017-09-09T05:29:08.174Z,981.54
2017-09-09T05:30:07.846Z,981.54
2017-09-09T05:31:07.835Z,981.51
2017-09-09T05:32:07.838Z,981.52
2017-09-09T05:33:07.830Z,981.53
2017-09-09T05:34:07.807Z,981.51
2017-09-09T05:35:08.185Z,981.53
2017-09-09T05:36:07.790Z,981.49
2017-09-09T05:37:07.785Z,981.48
2017-09-09T05:38:07.773Z,981.42
2017-09-09T05:39:07.749Z,981.39
2017-09-09T05:40:07.746Z,981.34
2017-09-09T05:41:08.203Z,981.40
2017-09-09T05:42:07.717Z,981.39
2017-09-09T05:43:07.742Z,981.42
2017-09-09T05:44:07.699Z,981.41
2017-09-09T05:45:07.702Z,981.42
2017-09-09T05:46:07.685Z,981.40
2017-09-09T05:47:07.715Z,981.39
2017-09-09T05:48:07.659Z,981.38
2017-09-09T05:49:07.661Z,981.35
2017-09-09T05:50:07.639Z,981.34
2017-09-09T05:51:07.643Z,981.32
2017-09-09T05:52:07.926Z,981.34
2017-09-09T05:53:07.610Z,981.32
2017-09-09T05:54:07.599Z,981.34
2017-09-09T05:55:07.604Z,981.33
2017-09-09T05:56:07.592Z,981.29
2017-09-09T05:57:07.582Z,981.23
2017-09-09T05:58:07.882Z,981.21
2017-09-09T05:59:07.551Z,981.18
2017-09-09T06:00:07.551Z,981.21
2017-09-09T06:01:07.549Z,981.20
2017-09-09T06:02:07.532Z,981.17
2017-09-09T06:03:07.521Z,981.15
2017-09-09T06:04:07.822Z,981.15
2017-09-09T06:05:07.486Z,981.17
2017-09-09T06:06:07.483Z,981.12
2017-09-09T06:07:07.468Z,981.10
2017-09-09T06:08:07.465Z,981.09
2017-09-09T06:09:07.450Z,981.07
2017-09-09T06:10:07.478Z,981.08
2017-09-09T06:11:07.454Z,981.07
2017-09-09T06:12:07.419Z,981.09
2017-09-09T06:13:07.411Z,981.15
2017-09-09T06:14:07.706Z,981.12
2017-09-09T06:15:07.394Z,981.13
2017-09-09T06:16:07.394Z,981.13
2017-09-09T06:17:07.394Z,981.09
2017-09-09T06:18:07.368Z,981.12
2017-09-09T06:19:07.361Z,981.09
2017-09-09T06:20:07.382Z,981.13
2017-09-09T06:21:07.342Z,981.09
2017-09-09T06:22:07.326Z,981.12
2017-09-09T06:23:07.327Z,981.18
2017-09-09T06:24:07.664Z,981.19
2017-09-09T06:25:07.312Z,981.21
2017-09-09T06:26:07.287Z,981.19
2017-09-09T06:27:07.286Z,981.23
2017-09-09T06:28:07.269Z,981.22
2017-09-09T06:29:07.250Z,981.23
2017-09-09T06:30:07.549Z,981.25
2017-09-09T06:31:07.241Z,981.25
2017-09-09T06:32:07.235Z,981.25
2017-09-09T06:33:07.222Z,981.26
2017-09-09T06:34:07.214Z,981.25
2017-09-09T06:35:07.202Z,981.22
2017-09-09T06:36:07.529Z,981.20
2017-09-09T06:37:07.175Z,981.22
2017-09-09T06:38:07.164Z,981.23
2017-09-09T06:39:07.159Z,981.26
2017-09-09T06:40:07.143Z,981.26
2017-09-09T06:41:07.135Z,981.33
2017-09-09T06:42:07.166Z,981.30
2017-09-09T06:43:07.123Z,981.30
2017-09-09T06:44:07.146Z,981.33
2017-09-09T06:45:07.117Z,981.32
2017-09-09T06:46:07.090Z,981.32
2017-09-09T06:47:07.307Z,981.36
2017-09-09T06:48:07.070Z,981.29
2017-09-09T06:49:08.046Z,981.20
2017-09-09T06:50:07.086Z,981.18
2017-09-09T06:51:07.039Z,981.27
2017-09-09T06:52:07.020Z,981.31
2017-09-09T06:53:07.010Z,981.24
2017-09-09T06:54:08.110Z,981.27
2017-09-09T06:55:07.379Z,981.24
2017-09-09T06:56:06.985Z,981.27
2017-09-09T06:57:06.979Z,981.26
2017-09-09T06:58:06.969Z,981.20
2017-09-09T06:59:06.958Z,981.13
2017-09-09T07:00:06.954Z,981.19
2017-09-09T07:01:07.294Z,981.22
2017-09-09T07:02:06.931Z,981.12
2017-09-09T07:03:06.921Z,981.12
2017-09-09T07:04:06.896Z,981.12
2017-09-09T07:05:06.906Z,981.13
2017-09-09T07:06:06.880Z,981.15
2017-09-09T07:07:07.216Z,981.18
2017-09-09T07:08:06.861Z,981.19
2017-09-09T07:09:06.834Z,981.14
2017-09-09T07:10:06.836Z,981.07
2017-09-09T07:11:06.843Z,980.98
2017-09-09T07:12:06.836Z,980.94
2017-09-09T07:13:06.826Z,980.97
2017-09-09T07:14:06.798Z,980.99
2017-09-09T07:15:06.778Z,981.02
2017-09-09T07:16:06.777Z,981.10
2017-09-09T07:17:07.187Z,981.06
2017-09-09T07:18:06.750Z,981.03
2017-09-09T07:19:06.730Z,981.05
2017-09-09T07:20:06.726Z,981.10
2017-09-09T07:21:06.712Z,981.11
2017-09-09T07:22:06.717Z,981.08
2017-09-09T07:23:07.059Z,981.11
2017-09-09T07:24:06.676Z,981.11
2017-09-09T07:25:06.666Z,981.16
2017-09-09T07:26:06.660Z,981.19
2017-09-09T07:27:06.646Z,981.23
2017-09-09T07:28:06.633Z,981.28
2017-09-09T07:29:07.033Z,981.34
2017-09-09T07:30:06.616Z,981.39
2017-09-09T07:31:06.612Z,981.39
2017-09-09T07:32:06.588Z,981.44
2017-09-09T07:33:06.593Z,981.45
2017-09-09T07:34:06.581Z,981.45
2017-09-09T07:35:06.914Z,981.44
2017-09-09T07:36:06.550Z,981.46
2017-09-09T07:37:06.529Z,981.45
2017-09-09T07:38:06.523Z,981.50
2017-09-09T07:39:06.522Z,981.52
2017-09-09T07:40:06.507Z,981.57
2017-09-09T07:41:06.931Z,981.59
2017-09-09T07:42:06.491Z,981.58
2017-09-09T07:43:06.469Z,981.58
2017-09-09T07:44:06.458Z,981.64
2017-09-09T07:45:06.457Z,981.61
2017-09-09T07:46:06.437Z,981.63
2017-09-09T07:47:06.755Z,981.57
2017-09-09T07:48:06.437Z,981.67
2017-09-09T07:49:06.406Z,981.64
2017-09-09T07:50:06.412Z,981.69
2017-09-09T07:51:06.382Z,981.68
2017-09-09T07:52:06.393Z,981.67
2017-09-09T07:53:06.728Z,981.70
2017-09-09T07:54:06.358Z,981.69
2017-09-09T07:55:06.340Z,981.67
2017-09-09T07:56:06.325Z,981.69
2017-09-09T07:57:06.331Z,981.65
2017-09-09T07:58:06.322Z,981.70
2017-09-09T07:59:06.610Z,981.77
2017-09-09T08:00:06.291Z,981.75
2017-09-09T08:01:06.284Z,981.79
2017-09-09T08:02:06.273Z,981.75
2017-09-09T08:03:06.256Z,981.76
2017-09-09T08:04:06.265Z,981.77
2017-09-09T08:05:06.268Z,981.74
2017-09-09T08:06:07.047Z,981.73
2017-09-09T08:07:06.212Z,981.75
2017-09-09T08:08:06.245Z,981.79
2017-09-09T08:09:06.713Z,981.76
2017-09-09T08:10:06.253Z,981.79
2017-09-09T08:11:06.176Z,981.87
2017-09-09T08:12:06.165Z,981.86
2017-09-09T08:13:06.142Z,981.81
2017-09-09T08:14:06.132Z,981.82
2017-09-09T08:15:06.570Z,981.80
2017-09-09T08:16:06.123Z,981.82
2017-09-09T08:17:06.109Z,981.81
2017-09-09T08:18:06.105Z,981.81
2017-09-09T08:19:06.073Z,981.79
2017-09-09T08:20:06.064Z,981.83
2017-09-09T08:21:06.400Z,981.85
2017-09-09T08:22:06.058Z,981.83
2017-09-09T08:23:06.035Z,981.84
2017-09-09T08:24:06.203Z,981.85
2017-09-09T08:25:06.021Z,981.92
2017-09-09T08:26:05.996Z,981.90
2017-09-09T08:27:06.209Z,981.93
2017-09-09T08:28:05.988Z,981.97
2017-09-09T08:29:05.965Z,981.98
2017-09-09T08:30:05.966Z,982.00
2017-09-09T08:31:05.957Z,982.06
2017-09-09T08:32:06.484Z,982.09
2017-09-09T08:33:06.268Z,982.14
2017-09-09T08:34:05.928Z,982.13
2017-09-09T08:35:05.902Z,982.09
2017-09-09T08:36:05.979Z,982.07
2017-09-09T08:37:05.876Z,982.07
2017-09-09T08:38:05.880Z,982.07
2017-09-09T08:39:06.063Z,982.05
2017-09-09T08:40:05.843Z,982.03
2017-09-09T08:41:05.853Z,982.06
2017-09-09T08:42:05.841Z,982.14
2017-09-09T08:43:05.839Z,982.16
2017-09-09T08:44:05.800Z,982.17
2017-09-09T08:45:06.193Z,982.21
2017-09-09T08:46:05.788Z,982.15
2017-09-09T08:47:05.771Z,982.13
2017-09-09T08:48:05.769Z,982.15
2017-09-09T08:49:05.882Z,982.15
2017-09-09T08:50:05.744Z,982.14
2017-09-09T08:51:05.937Z,982.13
2017-09-09T08:52:05.729Z,982.16
2017-09-09T08:53:05.716Z,982.14
2017-09-09T08:54:05.693Z,982.15
2017-09-09T08:55:05.876Z,982.21
2017-09-09T08:56:05.680Z,982.16
2017-09-09T08:57:05.873Z,982.17
2017-09-09T08:58:05.660Z,982.17
2017-09-09T08:59:05.647Z,982.12
2017-09-09T09:00:05.644Z,982.13
2017-09-09T09:01:05.643Z,982.13
2017-09-09T09:02:05.640Z,982.12
2017-09-09T09:03:05.931Z,982.16
2017-09-09T09:04:05.607Z,982.20
2017-09-09T09:05:05.587Z,982.25
2017-09-09T09:06:05.579Z,982.27
2017-09-09T09:07:05.561Z,982.32
2017-09-09T09:08:05.609Z,982.33
2017-09-09T09:09:05.890Z,982.29
2017-09-09T09:10:05.524Z,982.28
2017-09-09T09:11:05.516Z,982.30
2017-09-09T09:12:05.514Z,982.29
2017-09-09T09:13:05.516Z,982.33
2017-09-09T09:14:05.498Z,982.33
2017-09-09T09:15:05.701Z,982.26
2017-09-09T09:16:05.462Z,982.34
2017-09-09T09:17:05.451Z,982.33
2017-09-09T09:18:05.441Z,982.30
2017-09-09T09:19:05.550Z,982.29
2017-09-09T09:20:05.422Z,982.29
2017-09-09T09:21:05.818Z,982.31
2017-09-09T09:22:05.414Z,982.27
2017-09-09T09:23:05.412Z,982.25
2017-09-09T09:24:05.935Z,982.26
2017-09-09T09:25:05.383Z,982.26
2017-09-09T09:26:05.358Z,982.25
2017-09-09T09:27:05.655Z,982.28
2017-09-09T09:28:05.347Z,982.36
2017-09-09T09:29:05.326Z,982.29
2017-09-09T09:30:05.322Z,982.20
2017-09-09T09:31:05.307Z,982.29
2017-09-09T09:32:05.311Z,982.21
2017-09-09T09:33:05.330Z,982.13
2017-09-09T09:34:05.632Z,982.23
2017-09-09T09:35:05.275Z,982.20
2017-09-09T09:36:05.265Z,982.19
2017-09-09T09:37:05.513Z,982.20
2017-09-09T09:38:05.257Z,982.15
2017-09-09T09:39:05.935Z,982.15
2017-09-09T09:40:05.566Z,982.12
2017-09-09T09:41:05.204Z,982.13
2017-09-09T09:42:05.202Z,982.09
2017-09-09T09:43:05.184Z,982.12
2017-09-09T09:44:05.186Z,982.08
2017-09-09T09:45:05.164Z,982.08
2017-09-09T09:46:05.398Z,982.16
2017-09-09T09:47:05.236Z,982.08
2017-09-09T09:48:05.143Z,982.08
2017-09-09T09:49:05.126Z,982.04
2017-09-09T09:50:05.130Z,982.10
2017-09-09T09:51:05.113Z,982.19
2017-09-09T09:52:05.440Z,982.15
2017-09-09T09:53:05.101Z,982.16
2017-09-09T09:54:05.081Z,982.18
2017-09-09T09:55:05.065Z,982.22
2017-09-09T09:56:05.085Z,982.21
2017-09-09T09:57:05.056Z,982.23
2017-09-09T09:58:05.334Z,982.38
2017-09-09T09:59:05.041Z,982.24
2017-09-09T10:00:05.028Z,982.25
2017-09-09T10:01:05.006Z,982.20
2017-09-09T10:02:04.995Z,982.22
2017-09-09T10:03:05.114Z,982.21
2017-09-09T10:04:09.941Z,982.22
2017-09-09T10:05:04.987Z,982.21
2017-09-09T10:06:04.969Z,982.18
2017-09-09T10:07:04.962Z,982.14
2017-09-09T10:08:04.946Z,982.16
2017-09-09T10:09:09.957Z,982.12
2017-09-09T10:10:04.975Z,982.12
2017-09-09T10:11:04.940Z,982.12
2017-09-09T10:12:04.898Z,982.16
2017-09-09T10:13:04.911Z,982.17
2017-09-09T10:14:04.897Z,982.27
2017-09-09T10:15:05.477Z,982.18
2017-09-09T10:16:04.870Z,982.18
2017-09-09T10:17:04.854Z,982.23
2017-09-09T10:18:04.846Z,982.25
2017-09-09T10:19:04.827Z,982.22
2017-09-09T10:20:04.867Z,982.27
2017-09-09T10:21:05.216Z,982.28
2017-09-09T10:22:04.811Z,982.28
2017-09-09T10:23:04.801Z,982.25
2017-09-09T10:24:04.789Z,982.24
2017-09-09T10:25:04.794Z,982.20
2017-09-09T10:26:05.380Z,982.20
2017-09-09T10:27:05.057Z,982.21
2017-09-09T10:28:04.750Z,982.15
2017-09-09T10:29:04.748Z,982.18
2017-09-09T10:30:04.715Z,982.18
2017-09-09T10:31:04.720Z,982.19
2017-09-09T10:32:04.740Z,982.18
2017-09-09T10:33:05.343Z,982.15
2017-09-09T10:34:04.686Z,982.14
2017-09-09T10:35:04.694Z,982.17
2017-09-09T10:36:04.654Z,982.25
2017-09-09T10:37:04.686Z,982.34
2017-09-09T10:38:04.928Z,982.36
2017-09-09T10:39:04.636Z,982.34
2017-09-09T10:40:04.634Z,982.32
2017-09-09T10:41:04.676Z,982.35
2017-09-09T10:42:05.008Z,982.31
2017-09-09T10:43:04.587Z,982.34
2017-09-09T10:44:04.979Z,982.37
2017-09-09T10:45:04.578Z,982.36
2017-09-09T10:46:04.586Z,982.27
2017-09-09T10:47:04.545Z,982.30
2017-09-09T10:48:04.536Z,982.26
2017-09-09T10:49:04.598Z,982.37
2017-09-09T10:50:04.645Z,982.33
2017-09-09T10:51:04.506Z,982.33
2017-09-09T10:52:04.509Z,982.36
2017-09-09T10:53:04.483Z,982.37
2017-09-09T10:54:04.841Z,982.34
2017-09-09T10:55:04.494Z,982.37
2017-09-09T10:56:04.577Z,982.37
2017-09-09T10:57:04.445Z,982.44
2017-09-09T10:58:04.543Z,982.46
2017-09-09T10:59:11.463Z,982.46
2017-09-09T11:00:04.453Z,982.44
2017-09-09T11:01:04.417Z,982.40
2017-09-09T11:02:04.400Z,982.37
2017-09-09T11:03:04.402Z,982.38
2017-09-09T11:04:04.413Z,982.46
2017-09-09T11:05:04.382Z,982.40
2017-09-09T11:06:04.371Z,982.45
2017-09-09T11:07:04.366Z,982.50
2017-09-09T11:08:04.341Z,982.56
2017-09-09T11:09:04.375Z,982.54
2017-09-09T11:10:04.797Z,982.52
2017-09-09T11:11:04.324Z,982.52
2017-09-09T11:12:04.296Z,982.51
2017-09-09T11:13:04.311Z,982.54
2017-09-09T11:14:04.305Z,982.55
2017-09-09T11:15:04.837Z,982.55
2017-09-09T11:16:04.258Z,982.53
2017-09-09T11:17:04.272Z,982.68
2017-09-09T11:18:04.239Z,982.48
2017-09-09T11:19:04.549Z,982.48
2017-09-09T11:20:04.232Z,982.61
2017-09-09T11:21:04.412Z,982.58
2017-09-09T11:22:04.209Z,982.55
2017-09-09T11:23:04.195Z,982.58
2017-09-09T11:24:04.181Z,982.66
2017-09-09T11:25:04.473Z,982.67
2017-09-09T11:26:04.185Z,982.71
2017-09-09T11:27:04.162Z,982.70
2017-09-09T11:28:04.135Z,982.74
2017-09-09T11:29:04.219Z,982.77
2017-09-09T11:30:04.125Z,982.82
2017-09-09T11:31:04.441Z,982.85
2017-09-09T11:32:04.118Z,982.89
2017-09-09T11:33:04.115Z,982.85
2017-09-09T11:34:04.105Z,982.86
2017-09-09T11:35:05.551Z,982.91
2017-09-09T11:36:04.439Z,982.87
2017-09-09T11:37:05.388Z,982.91
2017-09-09T11:38:04.062Z,982.87
2017-09-09T11:39:04.040Z,982.95
2017-09-09T11:40:04.043Z,982.95
2017-09-09T11:41:04.020Z,982.92
2017-09-09T11:42:04.011Z,983.04
2017-09-09T11:43:04.126Z,983.09
2017-09-09T11:44:03.994Z,983.06
2017-09-09T11:45:03.969Z,983.15
2017-09-09T11:46:03.984Z,983.15
2017-09-09T11:47:03.952Z,983.16
2017-09-09T11:48:04.105Z,983.14
2017-09-09T11:49:03.945Z,983.23
2017-09-09T11:50:03.977Z,983.14
2017-09-09T11:51:03.940Z,983.17
2017-09-09T11:52:03.934Z,983.09
2017-09-09T11:53:03.916Z,982.98
2017-09-09T11:54:04.414Z,982.97
2017-09-09T12:19:56.946Z,983.54
2017-09-09T12:20:55.789Z,983.54
2017-09-09T12:21:56.063Z,983.50
2017-09-09T12:22:55.748Z,983.48
2017-09-09T12:23:56.319Z,983.54
2017-09-09T12:24:56.305Z,983.70
2017-09-09T12:25:56.966Z,983.62
2017-09-09T12:26:55.701Z,983.41
2017-09-09T12:27:56.412Z,983.54
2017-09-09T12:28:55.689Z,983.58
2017-09-09T12:29:55.677Z,983.60
2017-09-09T12:30:55.686Z,983.59
2017-09-09T12:31:55.675Z,983.52
2017-09-09T12:32:55.640Z,983.90
2017-09-09T12:33:55.646Z,983.69
2017-09-09T12:34:55.634Z,983.65
2017-09-09T12:35:56.050Z,983.77
2017-09-09T12:36:55.600Z,983.74
2017-09-09T12:37:55.606Z,983.75
2017-09-09T12:38:55.584Z,983.87
2017-09-09T12:39:55.626Z,983.81
2017-09-09T12:40:55.566Z,983.80
2017-09-09T12:41:55.587Z,983.92
2017-09-09T12:42:55.554Z,983.87
2017-09-09T12:43:55.543Z,983.92
2017-09-09T12:44:55.527Z,984.07
2017-09-09T12:45:56.291Z,983.93
2017-09-09T12:46:55.528Z,983.88
2017-09-09T12:47:55.501Z,983.95
2017-09-09T12:48:55.504Z,983.88
2017-09-09T12:49:55.490Z,983.92
2017-09-09T12:50:55.710Z,983.92
2017-09-09T12:51:55.535Z,984.07
2017-09-09T12:52:55.477Z,984.09